Time;durP1;ratioP1;P1;durP2;ratioP2;P2;SDS_P1;SDS_P2;PMS_P1;PMS_P2;Temp;Humidity;BMP_temperature;BMP_pressure;BME280_temperature;BME280_humidity;BME280_pressure;Samples;Min_cycle;Max_cycle;Signal;HPM_P1;HPM_P2
2022/10/10 00:08:47;;;;;;;3.4;8.1;;;;;;;4.2;86.2;99810;;;;
2022/10/10 00:18:47;;;;;;;3.4;8.1;;;;;;;4.1;86.5;99800;;;;
2022/10/10 00:29:47;;;;;;;3.4;8.1;;;;;;;3.9;86.8;99790;;;;
2022/10/10 00:40:47;;;;;;;3.6;7.2;;;;;;;3.8;86.8;99790;;;;
2022/10/10 00:51:47;;;;;;;3.6;7.2;;;;;;;3.7;86.9;99780;;;;
2022/10/10 01:02:47;;;;;;;3.6;7.2;;;;;;;3.7;87;99770;;;;
2022/10/10 01:13:47;;;;;;;3;6.9;;;;;;;3.5;87.2;99770;;;;
2022/10/10 01:23:47;;;;;;;3;6.9;;;;;;;3.4;87.9;99770;;;;
2022/10/10 01:33:47;;;;;;;3;6.9;;;;;;;3.3;88.1;99750;;;;
2022/10/10 01:43:47;;;;;;;3.5;8.2;;;;;;;3.3;88.1;99740;;;;
2022/10/10 01:53:47;;;;;;;3.5;8.2;;;;;;;3.3;88.4;99730;;;;
2022/10/10 02:04:47;;;;;;;3.5;8.2;;;;;;;3.5;89.1;99720;;;;
2022/10/10 02:14:47;;;;;;;3;6;;;;;;;3.6;89;99710;;;;
2022/10/10 02:24:47;;;;;;;3;6;;;;;;;3.5;88.7;99720;;;;
2022/10/10 02:35:48;;;;;;;4.4;8.6;;;;;;;3.4;88.7;99720;;;;
2022/10/10 02:46:47;;;;;;;4.4;8.6;;;;;;;3.3;88.4;99710;;;;
2022/10/10 02:57:47;;;;;;;4.4;8.6;;;;;;;3.1;88.2;99700;;;;
2022/10/10 03:07:47;;;;;;;4.6;7.8;;;;;;;3;88.4;99690;;;;
2022/10/10 03:17:47;;;;;;;4.6;7.8;;;;;;;3;88.2;99670;;;;
2022/10/10 03:28:47;;;;;;;4.6;7.8;;;;;;;2.9;88.2;99670;;;;
2022/10/10 03:39:47;;;;;;;3.5;9.2;;;;;;;2.9;88.3;99670;;;;
2022/10/10 03:50:47;;;;;;;3.5;9.2;;;;;;;2.8;88.6;99650;;;;
2022/10/10 04:01:47;;;;;;;3.5;9.2;;;;;;;2.7;88.7;99650;;;;
2022/10/10 04:12:47;;;;;;;4.3;7.9;;;;;;;2.6;89;99650;;;;
2022/10/10 04:23:47;;;;;;;4.3;7.9;;;;;;;2.6;89;99660;;;;
2022/10/10 04:33:47;;;;;;;4.3;7.9;;;;;;;2.5;89;99660;;;;
2022/10/10 04:44:47;;;;;;;7.1;12.9;;;;;;;2.4;88.8;99650;;;;
2022/10/10 04:55:47;;;;;;;7.1;12.9;;;;;;;2.3;89;99640;;;;
2022/10/10 05:06:47;;;;;;;6.5;10.9;;;;;;;2.1;89.6;99650;;;;
2022/10/10 05:17:47;;;;;;;6.5;10.9;;;;;;;2.1;90.2;99640;;;;
2022/10/10 05:28:47;;;;;;;6.5;10.9;;;;;;;2.2;90.3;99640;;;;
2022/10/10 05:39:47;;;;;;;6.3;11.9;;;;;;;2.5;90.3;99650;;;;
2022/10/10 05:50:47;;;;;;;6.3;11.9;;;;;;;2.8;90.3;99660;;;;
2022/10/10 06:00:47;;;;;;;6.3;11.9;;;;;;;3.1;90.2;99660;;;;
2022/10/10 06:10:47;;;;;;;7.5;14.1;;;;;;;3.5;90.2;99660;;;;
2022/10/10 06:21:47;;;;;;;7.5;14.1;;;;;;;4;90.2;99660;;;;
2022/10/10 06:31:47;;;;;;;7.5;14.1;;;;;;;4.4;90.2;99650;;;;
2022/10/10 06:42:47;;;;;;;6.8;11.5;;;;;;;5;90.1;99660;;;;
2022/10/10 06:53:47;;;;;;;6.8;11.5;;;;;;;5.6;89.7;99650;;;;
2022/10/10 07:04:47;;;;;;;7.5;14.5;;;;;;;6.3;88.9;99640;;;;
2022/10/10 07:15:47;;;;;;;7.5;14.5;;;;;;;6.9;87.1;99640;;;;
2022/10/10 07:25:47;;;;;;;7.5;14.5;;;;;;;7.5;83.7;99630;;;;
2022/10/10 07:36:49;;;;;;;5.7;8.7;;;;;;;8.1;82.1;99630;;;;
2022/10/10 07:47:47;;;;;;;5.7;8.7;;;;;;;8.7;80.9;99620;;;;
2022/10/10 07:58:47;;;;;;;5.7;8.7;;;;;;;9.4;78.4;99620;;;;
2022/10/10 08:08:47;;;;;;;4.8;10.2;;;;;;;10;75.9;99610;;;;
2022/10/10 08:19:47;;;;;;;4.8;10.2;;;;;;;10.6;73.1;99600;;;;
2022/10/10 08:29:47;;;;;;;4.8;10.2;;;;;;;11.1;73.4;99600;;;;
2022/10/10 08:40:47;;;;;;;4.5;9.3;;;;;;;11.6;73.3;99580;;;;
2022/10/10 08:50:47;;;;;;;4.5;9.3;;;;;;;12;72.7;99560;;;;
2022/10/10 09:01:47;;;;;;;4.5;9.3;;;;;;;12.4;70.8;99550;;;;
2022/10/10 09:11:47;;;;;;;8.6;16.7;;;;;;;12.5;71.4;99540;;;;
2022/10/10 09:21:47;;;;;;;8.6;16.7;;;;;;;12.7;69.5;99540;;;;
2022/10/10 09:31:49;;;;;;;8.6;16.7;;;;;;;13.1;68.5;99520;;;;
2022/10/10 09:42:47;;;;;;;6.9;9.4;;;;;;;13.5;68.5;99510;;;;
2022/10/10 09:52:47;;;;;;;6.9;9.4;;;;;;;13.8;66.5;99500;;;;
2022/10/10 10:02:47;;;;;;;6.9;9.4;;;;;;;14.1;65.1;99500;;;;
2022/10/10 10:13:47;;;;;;;6;8.7;;;;;;;14.3;65.6;99490;;;;
2022/10/10 10:23:47;;;;;;;6;8.7;;;;;;;14.6;63.8;99480;;;;
2022/10/10 10:33:47;;;;;;;5.1;12.6;;;;;;;14.9;63.5;99470;;;;
2022/10/10 10:43:47;;;;;;;5.1;12.6;;;;;;;15;61.2;99460;;;;
2022/10/10 10:54:47;;;;;;;5.1;12.6;;;;;;;15.2;59.2;99440;;;;
2022/10/10 11:04:47;;;;;;;4.2;9.2;;;;;;;15.5;58.2;99430;;;;
2022/10/10 11:15:47;;;;;;;4.2;9.2;;;;;;;15.8;58.3;99410;;;;
2022/10/10 11:25:47;;;;;;;4.2;9.2;;;;;;;15.8;56.8;99400;;;;
2022/10/10 11:36:47;;;;;;;4.8;8.5;;;;;;;16;53.4;99380;;;;
2022/10/10 11:47:47;;;;;;;4.8;8.5;;;;;;;16.3;54.5;99370;;;;
2022/10/10 11:57:47;;;;;;;4.8;8.5;;;;;;;16.5;54.8;99350;;;;
2022/10/10 12:08:47;;;;;;;3.4;5.6;;;;;;;16.7;55.5;99340;;;;
2022/10/10 12:18:47;;;;;;;3.4;5.6;;;;;;;17;56;99340;;;;
2022/10/10 12:28:47;;;;;;;3.4;5.6;;;;;;;17.3;55.9;99320;;;;
2022/10/10 12:39:47;;;;;;;3.5;7.1;;;;;;;17.4;54.1;99310;;;;
2022/10/10 12:49:47;;;;;;;3.5;7.1;;;;;;;17.4;54;99300;;;;
2022/10/10 13:00:47;;;;;;;3.5;7.1;;;;;;;17.4;54;99280;;;;
2022/10/10 13:11:47;;;;;;;3.8;6.3;;;;;;;17.6;52.7;99270;;;;
2022/10/10 13:22:47;;;;;;;3.8;6.3;;;;;;;17.7;53.7;99250;;;;
2022/10/10 13:33:47;;;;;;;3.9;6.5;;;;;;;17.6;52.8;99240;;;;
2022/10/10 13:44:47;;;;;;;3.9;6.5;;;;;;;17.6;53.2;99240;;;;
2022/10/10 13:55:47;;;;;;;3.9;6.5;;;;;;;17.6;52.4;99230;;;;
2022/10/10 14:05:47;;;;;;;3.8;6.3;;;;;;;17.6;52.7;99230;;;;
2022/10/10 14:16:47;;;;;;;3.8;6.3;;;;;;;17.6;53.5;99200;;;;
2022/10/10 14:26:47;;;;;;;3.8;6.3;;;;;;;17.4;53;99190;;;;
2022/10/10 14:37:47;;;;;;;3.9;7.4;;;;;;;17.2;54.2;99190;;;;
2022/10/10 14:48:47;;;;;;;3.9;7.4;;;;;;;17.1;54.8;99180;;;;
2022/10/10 14:59:47;;;;;;;3.9;7.4;;;;;;;16.8;55.6;99170;;;;
2022/10/10 15:09:47;;;;;;;3.7;7.3;;;;;;;16.4;56.6;99170;;;;
2022/10/10 15:20:47;;;;;;;3.7;7.3;;;;;;;16.1;58;99170;;;;
2022/10/10 15:30:47;;;;;;;3.7;7.3;;;;;;;15.8;59.2;99170;;;;
2022/10/10 15:41:47;;;;;;;3.6;7.2;;;;;;;15.3;60.3;99170;;;;
2022/10/10 15:51:47;;;;;;;3.6;7.2;;;;;;;14.8;62;99160;;;;
2022/10/10 16:02:47;;;;;;;3.6;7.2;;;;;;;14.1;63.6;99170;;;;
2022/10/10 16:12:47;;;;;;;11.6;16.2;;;;;;;13.5;64.4;99170;;;;
2022/10/10 16:23:47;;;;;;;11.6;16.2;;;;;;;13.1;66.3;99170;;;;
2022/10/10 16:33:47;;;;;;;8.4;18.4;;;;;;;12.7;69.5;99160;;;;
2022/10/10 16:44:47;;;;;;;8.4;18.4;;;;;;;12.5;69.9;99160;;;;
2022/10/10 16:55:47;;;;;;;8.4;18.4;;;;;;;12.3;71.2;99160;;;;
2022/10/10 17:06:47;;;;;;;9.2;13.7;;;;;;;11.9;70.8;99160;;;;
2022/10/10 17:16:47;;;;;;;9.2;13.7;;;;;;;11.5;72.2;99160;;;;
2022/10/10 17:27:47;;;;;;;9.2;13.7;;;;;;;11;75.4;99150;;;;
2022/10/10 17:37:47;;;;;;;20.9;28.4;;;;;;;10.7;74.6;99160;;;;
2022/10/10 17:47:47;;;;;;;20.9;28.4;;;;;;;10.4;76.5;99140;;;;
2022/10/10 17:57:47;;;;;;;20.9;28.4;;;;;;;10.2;77.3;99150;;;;
2022/10/10 18:08:47;;;;;;;22.6;31.1;;;;;;;9.9;78.9;99140;;;;
2022/10/10 18:19:47;;;;;;;22.6;31.1;;;;;;;9.7;79;99130;;;;
2022/10/10 18:29:47;;;;;;;22.6;31.1;;;;;;;9.3;81.9;99130;;;;
2022/10/10 18:39:48;;;;;;;21;28.3;;;;;;;9.2;81;99120;;;;
2022/10/10 18:50:47;;;;;;;21;28.3;;;;;;;9;80.5;99120;;;;
2022/10/10 19:00:47;;;;;;;21;28.3;;;;;;;8.9;81;99110;;;;
2022/10/10 19:10:47;;;;;;;12.6;21.6;;;;;;;8.8;81;99120;;;;
2022/10/10 19:21:47;;;;;;;12.6;21.6;;;;;;;8.5;82.5;99120;;;;
2022/10/10 19:32:47;;;;;;;12.6;21.6;;;;;;;8.4;82.5;99120;;;;
2022/10/10 19:42:47;;;;;;;19.3;30.1;;;;;;;8.1;83.5;99130;;;;
2022/10/10 19:52:47;;;;;;;19.3;30.1;;;;;;;8;83.8;99130;;;;
2022/10/10 20:03:47;;;;;;;15;25.4;;;;;;;7.9;84.7;99140;;;;
2022/10/10 20:13:47;;;;;;;15;25.4;;;;;;;8;85.9;99140;;;;
2022/10/10 20:24:47;;;;;;;15;25.4;;;;;;;7.9;85.4;99140;;;;
2022/10/10 20:34:47;;;;;;;15;22.9;;;;;;;7.9;86.1;99140;;;;
2022/10/10 20:45:47;;;;;;;15;22.9;;;;;;;7.9;85.8;99140;;;;
2022/10/10 20:55:47;;;;;;;15;22.9;;;;;;;7.9;86.4;99140;;;;
2022/10/10 21:06:47;;;;;;;14.4;23.7;;;;;;;8;85.9;99150;;;;
2022/10/10 21:17:47;;;;;;;14.4;23.7;;;;;;;8;85.9;99150;;;;
2022/10/10 21:28:47;;;;;;;14.4;23.7;;;;;;;8.2;86.5;99140;;;;
2022/10/10 21:38:47;;;;;;;12.7;16.9;;;;;;;8.3;86.4;99140;;;;
2022/10/10 21:49:47;;;;;;;12.7;16.9;;;;;;;8.3;85.5;99150;;;;
2022/10/10 22:00:47;;;;;;;12.7;16.9;;;;;;;8.2;85.3;99150;;;;
2022/10/10 22:11:47;;;;;;;12.9;15.5;;;;;;;8.2;85.2;99160;;;;
2022/10/10 22:22:47;;;;;;;12.9;15.5;;;;;;;8.1;85.2;99150;;;;
2022/10/10 22:32:47;;;;;;;12.9;15.5;;;;;;;7.9;85;99150;;;;
2022/10/10 22:43:48;;;;;;;15.3;21.3;;;;;;;7.9;85.1;99160;;;;
2022/10/10 22:54:47;;;;;;;15.3;21.3;;;;;;;7.9;85;99160;;;;
2022/10/10 23:05:47;;;;;;;19.3;25.6;;;;;;;7.8;85.2;99160;;;;
2022/10/10 23:16:47;;;;;;;19.3;25.6;;;;;;;7.8;85.8;99170;;;;
2022/10/10 23:27:47;;;;;;;19.3;25.6;;;;;;;7.8;86.1;99170;;;;
2022/10/10 23:38:47;;;;;;;17.5;23.8;;;;;;;7.9;85.8;99170;;;;
2022/10/10 23:48:47;;;;;;;17.5;23.8;;;;;;;7.9;85.8;99170;;;;
2022/10/10 23:58:47;;;;;;;17.5;23.8;;;;;;;8;85.7;99170;;;;
